sensor_id;sensor_type;location;lat;lon;timestamp;temperature;humidity
39023;DHT22;25908;51.984;5.928;2023-03-01T00:00:19;3.80;75.90
39023;DHT22;25908;51.984;5.928;2023-03-01T00:02:45;3.80;76.30
39023;DHT22;25908;51.984;5.928;2023-03-01T00:05:10;3.80;76.30
39023;DHT22;25908;51.984;5.928;2023-03-01T00:07:36;3.80;76.40
39023;DHT22;25908;51.984;5.928;2023-03-01T00:10:02;3.80;76.60
39023;DHT22;25908;51.984;5.928;2023-03-01T00:12:27;3.70;76.70
39023;DHT22;25908;51.984;5.928;2023-03-01T00:14:53;3.70;77.10
39023;DHT22;25908;51.984;5.928;2023-03-01T00:17:18;3.70;77.00
39023;DHT22;25908;51.984;5.928;2023-03-01T00:19:44;3.70;77.00
39023;DHT22;25908;51.984;5.928;2023-03-01T00:22:10;3.70;76.80
39023;DHT22;25908;51.984;5.928;2023-03-01T00:24:35;3.70;76.40
39023;DHT22;25908;51.984;5.928;2023-03-01T00:27:01;3.70;76.80
39023;DHT22;25908;51.984;5.928;2023-03-01T00:29:27;3.70;76.60
39023;DHT22;25908;51.984;5.928;2023-03-01T00:31:52;3.70;76.50
39023;DHT22;25908;51.984;5.928;2023-03-01T00:34:18;3.70;76.70
39023;DHT22;25908;51.984;5.928;2023-03-01T00:36:44;3.70;76.60
39023;DHT22;25908;51.984;5.928;2023-03-01T00:39:12;3.70;76.80
39023;DHT22;25908;51.984;5.928;2023-03-01T00:41:38;3.70;77.00
39023;DHT22;25908;51.984;5.928;2023-03-01T00:44:05;3.70;76.60
39023;DHT22;25908;51.984;5.928;2023-03-01T00:46:31;3.60;77.00
39023;DHT22;25908;51.984;5.928;2023-03-01T00:48:57;3.70;77.30
39023;DHT22;25908;51.984;5.928;2023-03-01T00:51:26;3.70;77.20
39023;DHT22;25908;51.984;5.928;2023-03-01T00:53:53;3.70;77.40
39023;DHT22;25908;51.984;5.928;2023-03-01T00:56:19;3.70;77.50
39023;DHT22;25908;51.984;5.928;2023-03-01T00:58:45;3.70;77.60
39023;DHT22;25908;51.984;5.928;2023-03-01T01:01:13;3.60;77.50
39023;DHT22;25908;51.984;5.928;2023-03-01T01:03:47;3.60;77.40
39023;DHT22;25908;51.984;5.928;2023-03-01T01:06:18;3.60;77.50
39023;DHT22;25908;51.984;5.928;2023-03-01T01:08:44;3.50;77.80
39023;DHT22;25908;51.984;5.928;2023-03-01T01:11:12;3.50;78.10
39023;DHT22;25908;51.984;5.928;2023-03-01T01:13:38;3.50;78.20
39023;DHT22;25908;51.984;5.928;2023-03-01T01:16:04;3.50;78.60
39023;DHT22;25908;51.984;5.928;2023-03-01T01:18:30;3.50;79.10
39023;DHT22;25908;51.984;5.928;2023-03-01T01:20:56;3.50;79.20
39023;DHT22;25908;51.984;5.928;2023-03-01T01:23:21;3.40;79.60
39023;DHT22;25908;51.984;5.928;2023-03-01T01:25:47;3.40;80.00
39023;DHT22;25908;51.984;5.928;2023-03-01T01:28:12;3.40;80.10
39023;DHT22;25908;51.984;5.928;2023-03-01T01:30:38;3.40;80.00
39023;DHT22;25908;51.984;5.928;2023-03-01T01:33:03;3.30;80.40
39023;DHT22;25908;51.984;5.928;2023-03-01T01:35:29;3.30;80.80
39023;DHT22;25908;51.984;5.928;2023-03-01T01:37:54;3.20;81.10
39023;DHT22;25908;51.984;5.928;2023-03-01T01:40:20;3.20;81.30
39023;DHT22;25908;51.984;5.928;2023-03-01T01:42:45;3.20;81.20
39023;DHT22;25908;51.984;5.928;2023-03-01T01:45:33;3.10;81.10
39023;DHT22;25908;51.984;5.928;2023-03-01T01:48:04;3.20;80.80
39023;DHT22;25908;51.984;5.928;2023-03-01T01:50:33;3.20;80.90
39023;DHT22;25908;51.984;5.928;2023-03-01T01:53:12;3.20;80.90
39023;DHT22;25908;51.984;5.928;2023-03-01T01:55:43;3.20;81.00
39023;DHT22;25908;51.984;5.928;2023-03-01T01:58:12;3.10;81.00
39023;DHT22;25908;51.984;5.928;2023-03-01T02:00:39;3.20;81.00
39023;DHT22;25908;51.984;5.928;2023-03-01T02:03:10;3.10;81.30
39023;DHT22;25908;51.984;5.928;2023-03-01T02:08:13;3.10;81.00
39023;DHT22;25908;51.984;5.928;2023-03-01T02:10:41;3.10;81.30
39023;DHT22;25908;51.984;5.928;2023-03-01T02:13:07;3.10;81.10
39023;DHT22;25908;51.984;5.928;2023-03-01T02:15:34;3.10;81.20
39023;DHT22;25908;51.984;5.928;2023-03-01T02:18:01;3.10;81.40
39023;DHT22;25908;51.984;5.928;2023-03-01T02:20:56;3.10;81.60
39023;DHT22;25908;51.984;5.928;2023-03-01T02:23:25;3.00;81.70
39023;DHT22;25908;51.984;5.928;2023-03-01T02:26:06;3.10;81.80
39023;DHT22;25908;51.984;5.928;2023-03-01T02:28:37;3.00;81.70
39023;DHT22;25908;51.984;5.928;2023-03-01T02:31:06;3.00;81.80
39023;DHT22;25908;51.984;5.928;2023-03-01T02:33:51;3.00;82.10
39023;DHT22;25908;51.984;5.928;2023-03-01T02:36:31;3.00;82.50
39023;DHT22;25908;51.984;5.928;2023-03-01T02:39:02;2.90;82.30
39023;DHT22;25908;51.984;5.928;2023-03-01T02:41:33;3.00;82.50
39023;DHT22;25908;51.984;5.928;2023-03-01T02:44:01;2.90;82.20
39023;DHT22;25908;51.984;5.928;2023-03-01T02:46:27;2.90;82.80
39023;DHT22;25908;51.984;5.928;2023-03-01T02:48:55;2.90;83.10
39023;DHT22;25908;51.984;5.928;2023-03-01T02:51:24;2.90;83.00
39023;DHT22;25908;51.984;5.928;2023-03-01T02:56:35;2.90;83.30
39023;DHT22;25908;51.984;5.928;2023-03-01T02:59:01;2.90;83.20
39023;DHT22;25908;51.984;5.928;2023-03-01T03:01:28;2.80;83.30
39023;DHT22;25908;51.984;5.928;2023-03-01T03:04:08;2.90;83.20
39023;DHT22;25908;51.984;5.928;2023-03-01T03:06:35;2.80;83.30
39023;DHT22;25908;51.984;5.928;2023-03-01T03:09:02;2.80;84.30
39023;DHT22;25908;51.984;5.928;2023-03-01T03:11:28;2.80;83.60
39023;DHT22;25908;51.984;5.928;2023-03-01T03:13:53;2.90;83.80
39023;DHT22;25908;51.984;5.928;2023-03-01T03:16:20;2.90;83.90
39023;DHT22;25908;51.984;5.928;2023-03-01T03:18:46;2.90;83.70
39023;DHT22;25908;51.984;5.928;2023-03-01T03:21:13;2.90;83.60
39023;DHT22;25908;51.984;5.928;2023-03-01T03:23:38;2.90;84.00
39023;DHT22;25908;51.984;5.928;2023-03-01T03:26:05;2.90;84.00
39023;DHT22;25908;51.984;5.928;2023-03-01T03:28:31;2.80;83.80
39023;DHT22;25908;51.984;5.928;2023-03-01T03:30:57;2.80;84.20
39023;DHT22;25908;51.984;5.928;2023-03-01T03:33:24;2.80;84.40
39023;DHT22;25908;51.984;5.928;2023-03-01T03:35:50;2.80;84.70
39023;DHT22;25908;51.984;5.928;2023-03-01T03:38:18;2.80;85.10
39023;DHT22;25908;51.984;5.928;2023-03-01T03:40:55;2.80;84.80
39023;DHT22;25908;51.984;5.928;2023-03-01T03:43:27;2.80;85.00
39023;DHT22;25908;51.984;5.928;2023-03-01T03:45:53;2.70;85.30
39023;DHT22;25908;51.984;5.928;2023-03-01T03:48:19;2.80;85.40
39023;DHT22;25908;51.984;5.928;2023-03-01T03:50:54;2.70;86.50
39023;DHT22;25908;51.984;5.928;2023-03-01T03:53:21;2.70;85.90
39023;DHT22;25908;51.984;5.928;2023-03-01T03:55:47;2.60;85.80
39023;DHT22;25908;51.984;5.928;2023-03-01T03:58:15;2.60;86.10
39023;DHT22;25908;51.984;5.928;2023-03-01T04:00:44;2.60;86.40
39023;DHT22;25908;51.984;5.928;2023-03-01T04:03:12;2.60;86.60
39023;DHT22;25908;51.984;5.928;2023-03-01T04:05:39;2.60;86.80
39023;DHT22;25908;51.984;5.928;2023-03-01T04:08:05;2.60;87.20
39023;DHT22;25908;51.984;5.928;2023-03-01T04:10:39;2.60;87.40
39023;DHT22;25908;51.984;5.928;2023-03-01T04:13:06;2.60;87.80
39023;DHT22;25908;51.984;5.928;2023-03-01T04:15:33;2.50;88.10
39023;DHT22;25908;51.984;5.928;2023-03-01T04:17:59;2.50;88.30
39023;DHT22;25908;51.984;5.928;2023-03-01T04:20:28;2.50;88.40
39023;DHT22;25908;51.984;5.928;2023-03-01T04:23:10;2.50;88.30
39023;DHT22;25908;51.984;5.928;2023-03-01T04:28:19;2.50;88.80
39023;DHT22;25908;51.984;5.928;2023-03-01T04:30:45;2.50;89.10
39023;DHT22;25908;51.984;5.928;2023-03-01T04:33:10;2.50;89.50
39023;DHT22;25908;51.984;5.928;2023-03-01T04:35:37;2.50;89.30
39023;DHT22;25908;51.984;5.928;2023-03-01T04:38:04;2.50;89.60
39023;DHT22;25908;51.984;5.928;2023-03-01T04:40:31;2.50;89.80
39023;DHT22;25908;51.984;5.928;2023-03-01T04:42:56;2.50;89.60
39023;DHT22;25908;51.984;5.928;2023-03-01T04:45:22;2.50;89.60
39023;DHT22;25908;51.984;5.928;2023-03-01T04:47:48;2.50;89.90
39023;DHT22;25908;51.984;5.928;2023-03-01T04:50:16;2.50;89.80
39023;DHT22;25908;51.984;5.928;2023-03-01T04:52:43;2.50;89.70
39023;DHT22;25908;51.984;5.928;2023-03-01T04:55:09;2.50;89.60
39023;DHT22;25908;51.984;5.928;2023-03-01T04:57:35;2.60;89.60
39023;DHT22;25908;51.984;5.928;2023-03-01T05:00:01;2.60;89.30
39023;DHT22;25908;51.984;5.928;2023-03-01T05:02:26;2.60;89.20
39023;DHT22;25908;51.984;5.928;2023-03-01T05:04:52;2.60;89.10
39023;DHT22;25908;51.984;5.928;2023-03-01T05:07:17;2.60;88.70
39023;DHT22;25908;51.984;5.928;2023-03-01T05:09:48;2.70;89.10
39023;DHT22;25908;51.984;5.928;2023-03-01T05:12:14;2.60;88.60
39023;DHT22;25908;51.984;5.928;2023-03-01T05:14:40;2.60;88.50
39023;DHT22;25908;51.984;5.928;2023-03-01T05:17:06;2.60;88.90
39023;DHT22;25908;51.984;5.928;2023-03-01T05:19:32;2.60;89.10
39023;DHT22;25908;51.984;5.928;2023-03-01T05:21:58;2.60;89.30
39023;DHT22;25908;51.984;5.928;2023-03-01T05:24:28;2.60;89.30
39023;DHT22;25908;51.984;5.928;2023-03-01T05:26:54;2.60;89.40
39023;DHT22;25908;51.984;5.928;2023-03-01T05:29:24;2.60;89.40
39023;DHT22;25908;51.984;5.928;2023-03-01T05:31:58;2.60;89.40
39023;DHT22;25908;51.984;5.928;2023-03-01T05:34:29;2.50;89.50
39023;DHT22;25908;51.984;5.928;2023-03-01T05:36:56;2.50;89.80
39023;DHT22;25908;51.984;5.928;2023-03-01T05:39:23;2.50;90.00
39023;DHT22;25908;51.984;5.928;2023-03-01T05:41:56;2.50;90.10
39023;DHT22;25908;51.984;5.928;2023-03-01T05:44:22;2.50;90.20
39023;DHT22;25908;51.984;5.928;2023-03-01T05:46:48;2.50;90.30
39023;DHT22;25908;51.984;5.928;2023-03-01T05:49:14;2.40;90.30
39023;DHT22;25908;51.984;5.928;2023-03-01T05:51:40;2.40;90.50
39023;DHT22;25908;51.984;5.928;2023-03-01T05:54:07;2.40;90.50
39023;DHT22;25908;51.984;5.928;2023-03-01T05:56:36;2.50;90.50
39023;DHT22;25908;51.984;5.928;2023-03-01T05:59:03;2.50;90.50
39023;DHT22;25908;51.984;5.928;2023-03-01T06:01:30;2.50;90.50
39023;DHT22;25908;51.984;5.928;2023-03-01T06:03:56;2.50;90.60
39023;DHT22;25908;51.984;5.928;2023-03-01T06:06:22;2.50;90.70
39023;DHT22;25908;51.984;5.928;2023-03-01T06:08:48;2.50;90.60
39023;DHT22;25908;51.984;5.928;2023-03-01T06:11:14;2.40;90.50
39023;DHT22;25908;51.984;5.928;2023-03-01T06:13:44;2.40;90.70
39023;DHT22;25908;51.984;5.928;2023-03-01T06:16:10;2.40;90.70
39023;DHT22;25908;51.984;5.928;2023-03-01T06:18:36;2.50;91.10
39023;DHT22;25908;51.984;5.928;2023-03-01T06:21:02;2.40;91.00
39023;DHT22;25908;51.984;5.928;2023-03-01T06:23:28;2.40;91.00
39023;DHT22;25908;51.984;5.928;2023-03-01T06:25:53;2.40;91.10
39023;DHT22;25908;51.984;5.928;2023-03-01T06:28:19;2.40;91.20
39023;DHT22;25908;51.984;5.928;2023-03-01T06:30:45;2.30;91.40
39023;DHT22;25908;51.984;5.928;2023-03-01T06:33:11;2.30;91.70
39023;DHT22;25908;51.984;5.928;2023-03-01T06:35:37;2.30;91.80
39023;DHT22;25908;51.984;5.928;2023-03-01T06:38:03;2.20;91.90
39023;DHT22;25908;51.984;5.928;2023-03-01T06:40:30;2.20;92.10
39023;DHT22;25908;51.984;5.928;2023-03-01T06:42:56;2.20;92.30
39023;DHT22;25908;51.984;5.928;2023-03-01T06:45:22;2.20;92.40
39023;DHT22;25908;51.984;5.928;2023-03-01T06:47:48;2.10;92.40
39023;DHT22;25908;51.984;5.928;2023-03-01T06:50:14;2.10;92.50
39023;DHT22;25908;51.984;5.928;2023-03-01T06:52:40;2.10;92.40
39023;DHT22;25908;51.984;5.928;2023-03-01T06:55:06;2.10;92.50
39023;DHT22;25908;51.984;5.928;2023-03-01T06:57:32;2.10;92.80
39023;DHT22;25908;51.984;5.928;2023-03-01T06:59:57;2.10;92.80
39023;DHT22;25908;51.984;5.928;2023-03-01T07:02:23;2.10;92.80
39023;DHT22;25908;51.984;5.928;2023-03-01T07:04:50;2.20;92.70
39023;DHT22;25908;51.984;5.928;2023-03-01T07:07:16;2.20;92.50
39023;DHT22;25908;51.984;5.928;2023-03-01T07:09:44;2.20;92.60
39023;DHT22;25908;51.984;5.928;2023-03-01T07:12:09;2.20;92.60
39023;DHT22;25908;51.984;5.928;2023-03-01T07:14:35;2.20;92.70
39023;DHT22;25908;51.984;5.928;2023-03-01T07:17:01;2.20;92.70
39023;DHT22;25908;51.984;5.928;2023-03-01T07:19:26;2.30;92.80
39023;DHT22;25908;51.984;5.928;2023-03-01T07:21:52;2.30;93.20
39023;DHT22;25908;51.984;5.928;2023-03-01T07:24:17;2.30;93.10
39023;DHT22;25908;51.984;5.928;2023-03-01T07:26:43;2.30;93.20
39023;DHT22;25908;51.984;5.928;2023-03-01T07:29:10;2.30;93.40
39023;DHT22;25908;51.984;5.928;2023-03-01T07:31:36;2.40;93.30
39023;DHT22;25908;51.984;5.928;2023-03-01T07:34:02;2.40;93.30
39023;DHT22;25908;51.984;5.928;2023-03-01T07:36:28;2.50;93.20
39023;DHT22;25908;51.984;5.928;2023-03-01T07:38:53;2.70;92.90
39023;DHT22;25908;51.984;5.928;2023-03-01T07:41:21;2.90;92.90
39023;DHT22;25908;51.984;5.928;2023-03-01T07:43:46;3.20;92.10
39023;DHT22;25908;51.984;5.928;2023-03-01T07:46:12;3.70;90.40
39023;DHT22;25908;51.984;5.928;2023-03-01T07:48:37;4.20;87.90
39023;DHT22;25908;51.984;5.928;2023-03-01T07:51:05;4.70;84.80
39023;DHT22;25908;51.984;5.928;2023-03-01T07:53:31;5.20;82.10
39023;DHT22;25908;51.984;5.928;2023-03-01T07:56:07;5.70;80.60
39023;DHT22;25908;51.984;5.928;2023-03-01T07:58:35;6.10;77.80
39023;DHT22;25908;51.984;5.928;2023-03-01T08:01:05;6.40;75.60
39023;DHT22;25908;51.984;5.928;2023-03-01T08:03:31;6.80;73.90
39023;DHT22;25908;51.984;5.928;2023-03-01T08:06:00;7.00;72.00
39023;DHT22;25908;51.984;5.928;2023-03-01T08:08:25;7.30;70.20
39023;DHT22;25908;51.984;5.928;2023-03-01T08:10:51;7.60;68.80
39023;DHT22;25908;51.984;5.928;2023-03-01T08:13:17;7.80;67.50
39023;DHT22;25908;51.984;5.928;2023-03-01T08:15:48;8.10;66.40
39023;DHT22;25908;51.984;5.928;2023-03-01T08:18:13;8.40;65.00
39023;DHT22;25908;51.984;5.928;2023-03-01T08:20:39;8.60;64.10
39023;DHT22;25908;51.984;5.928;2023-03-01T08:23:04;8.80;63.20
39023;DHT22;25908;51.984;5.928;2023-03-01T08:25:30;9.00;62.30
39023;DHT22;25908;51.984;5.928;2023-03-01T08:27:55;9.20;61.00
39023;DHT22;25908;51.984;5.928;2023-03-01T08:30:21;9.40;60.20
39023;DHT22;25908;51.984;5.928;2023-03-01T08:32:49;9.50;59.80
39023;DHT22;25908;51.984;5.928;2023-03-01T08:35:14;9.70;59.60
39023;DHT22;25908;51.984;5.928;2023-03-01T08:37:40;9.90;58.80
39023;DHT22;25908;51.984;5.928;2023-03-01T08:40:06;10.10;57.10
39023;DHT22;25908;51.984;5.928;2023-03-01T08:42:32;10.20;57.10
39023;DHT22;25908;51.984;5.928;2023-03-01T08:44:58;10.30;56.30
39023;DHT22;25908;51.984;5.928;2023-03-01T08:47:23;10.40;55.60
39023;DHT22;25908;51.984;5.928;2023-03-01T08:49:50;10.50;55.20
39023;DHT22;25908;51.984;5.928;2023-03-01T08:52:15;10.60;54.70
39023;DHT22;25908;51.984;5.928;2023-03-01T08:54:41;10.60;54.60
39023;DHT22;25908;51.984;5.928;2023-03-01T08:57:06;10.70;54.20
39023;DHT22;25908;51.984;5.928;2023-03-01T08:59:32;10.70;53.90
39023;DHT22;25908;51.984;5.928;2023-03-01T09:02:03;10.80;53.70
39023;DHT22;25908;51.984;5.928;2023-03-01T09:04:28;10.80;53.70
39023;DHT22;25908;51.984;5.928;2023-03-01T09:06:55;10.90;53.80
39023;DHT22;25908;51.984;5.928;2023-03-01T09:09:20;11.10;52.50
39023;DHT22;25908;51.984;5.928;2023-03-01T09:11:46;11.10;52.40
39023;DHT22;25908;51.984;5.928;2023-03-01T09:14:15;11.20;52.60
39023;DHT22;25908;51.984;5.928;2023-03-01T09:16:40;11.30;52.10
39023;DHT22;25908;51.984;5.928;2023-03-01T09:19:06;11.30;51.70
39023;DHT22;25908;51.984;5.928;2023-03-01T09:21:31;11.20;51.50
39023;DHT22;25908;51.984;5.928;2023-03-01T09:23:57;11.20;51.70
39023;DHT22;25908;51.984;5.928;2023-03-01T09:26:24;11.20;51.00
39023;DHT22;25908;51.984;5.928;2023-03-01T09:28:52;11.30;51.10
39023;DHT22;25908;51.984;5.928;2023-03-01T09:31:20;11.20;51.10
39023;DHT22;25908;51.984;5.928;2023-03-01T09:33:47;11.10;50.70
39023;DHT22;25908;51.984;5.928;2023-03-01T09:36:18;11.00;51.30
39023;DHT22;25908;51.984;5.928;2023-03-01T09:38:44;10.90;50.80
39023;DHT22;25908;51.984;5.928;2023-03-01T09:43:50;10.60;51.40
39023;DHT22;25908;51.984;5.928;2023-03-01T09:46:22;10.70;51.70
39023;DHT22;25908;51.984;5.928;2023-03-01T09:51:29;10.50;52.10
39023;DHT22;25908;51.984;5.928;2023-03-01T09:53:55;10.50;52.30
39023;DHT22;25908;51.984;5.928;2023-03-01T10:01:55;10.60;52.40
39023;DHT22;25908;51.984;5.928;2023-03-01T10:04:43;10.50;51.80
39023;DHT22;25908;51.984;5.928;2023-03-01T10:09:40;10.30;52.10
39023;DHT22;25908;51.984;5.928;2023-03-01T10:12:27;10.40;51.90
39023;DHT22;25908;51.984;5.928;2023-03-01T10:15:18;10.40;52.10
39023;DHT22;25908;51.984;5.928;2023-03-01T10:17:58;10.50;51.70
39023;DHT22;25908;51.984;5.928;2023-03-01T10:20:43;10.40;52.40
39023;DHT22;25908;51.984;5.928;2023-03-01T10:23:10;10.20;51.10
39023;DHT22;25908;51.984;5.928;2023-03-01T10:28:16;9.60;51.30
39023;DHT22;25908;51.984;5.928;2023-03-01T10:30:43;9.40;52.30
39023;DHT22;25908;51.984;5.928;2023-03-01T10:33:26;9.20;53.10
39023;DHT22;25908;51.984;5.928;2023-03-01T10:35:51;9.00;54.20
39023;DHT22;25908;51.984;5.928;2023-03-01T10:38:18;8.80;54.20
39023;DHT22;25908;51.984;5.928;2023-03-01T10:41:05;8.80;55.50
39023;DHT22;25908;51.984;5.928;2023-03-01T10:43:45;8.80;54.30
39023;DHT22;25908;51.984;5.928;2023-03-01T10:46:34;9.00;53.90
39023;DHT22;25908;51.984;5.928;2023-03-01T10:49:15;9.10;53.10
39023;DHT22;25908;51.984;5.928;2023-03-01T10:51:43;9.10;53.50
39023;DHT22;25908;51.984;5.928;2023-03-01T10:54:30;8.90;53.50
39023;DHT22;25908;51.984;5.928;2023-03-01T10:57:03;8.90;55.00
39023;DHT22;25908;51.984;5.928;2023-03-01T10:59:31;9.00;54.20
39023;DHT22;25908;51.984;5.928;2023-03-01T11:07:57;8.80;55.80
39023;DHT22;25908;51.984;5.928;2023-03-01T11:10:28;8.90;53.00
39023;DHT22;25908;51.984;5.928;2023-03-01T11:13:16;9.00;53.40
39023;DHT22;25908;51.984;5.928;2023-03-01T11:15:43;8.90;54.20
39023;DHT22;25908;51.984;5.928;2023-03-01T11:18:22;8.90;53.20
39023;DHT22;25908;51.984;5.928;2023-03-01T11:20:51;8.70;53.70
39023;DHT22;25908;51.984;5.928;2023-03-01T11:23:18;8.70;53.50
39023;DHT22;25908;51.984;5.928;2023-03-01T11:26:05;8.60;53.50
39023;DHT22;25908;51.984;5.928;2023-03-01T11:28:32;8.50;54.20
39023;DHT22;25908;51.984;5.928;2023-03-01T11:31:06;8.40;54.10
39023;DHT22;25908;51.984;5.928;2023-03-01T11:36:13;8.10;55.80
39023;DHT22;25908;51.984;5.928;2023-03-01T11:38:41;8.10;55.20
39023;DHT22;25908;51.984;5.928;2023-03-01T11:41:14;8.10;55.20
39023;DHT22;25908;51.984;5.928;2023-03-01T11:43:55;8.20;55.90
39023;DHT22;25908;51.984;5.928;2023-03-01T11:49:05;8.30;55.30
39023;DHT22;25908;51.984;5.928;2023-03-01T12:00:27;8.30;55.30
39023;DHT22;25908;51.984;5.928;2023-03-01T12:03:26;8.30;55.30
39023;DHT22;25908;51.984;5.928;2023-03-01T12:06:05;8.20;55.50
39023;DHT22;25908;51.984;5.928;2023-03-01T12:17:37;7.80;55.40
39023;DHT22;25908;51.984;5.928;2023-03-01T12:25:55;7.60;56.30
39023;DHT22;25908;51.984;5.928;2023-03-01T12:37:28;7.80;56.10
39023;DHT22;25908;51.984;5.928;2023-03-01T12:40:13;7.80;55.30
39023;DHT22;25908;51.984;5.928;2023-03-01T12:43:15;7.70;55.00
39023;DHT22;25908;51.984;5.928;2023-03-01T12:48:43;7.70;55.00
39023;DHT22;25908;51.984;5.928;2023-03-01T12:51:16;7.80;54.60
39023;DHT22;25908;51.984;5.928;2023-03-01T12:53:47;7.80;54.60
39023;DHT22;25908;51.984;5.928;2023-03-01T12:56:27;7.80;54.40
39023;DHT22;25908;51.984;5.928;2023-03-01T13:17:51;7.80;53.50
39023;DHT22;25908;51.984;5.928;2023-03-01T13:20:20;7.80;53.90
39023;DHT22;25908;51.984;5.928;2023-03-01T13:22:46;7.70;54.10
39023;DHT22;25908;51.984;5.928;2023-03-01T13:25:19;7.70;54.50
39023;DHT22;25908;51.984;5.928;2023-03-01T13:27:46;7.70;55.00
39023;DHT22;25908;51.984;5.928;2023-03-01T13:35:51;7.90;55.50
39023;DHT22;25908;51.984;5.928;2023-03-01T13:38:36;8.00;54.80
39023;DHT22;25908;51.984;5.928;2023-03-01T13:41:03;8.00;54.80
39023;DHT22;25908;51.984;5.928;2023-03-01T13:43:32;8.00;54.10
39023;DHT22;25908;51.984;5.928;2023-03-01T13:46:00;8.00;53.90
39023;DHT22;25908;51.984;5.928;2023-03-01T13:48:30;8.00;53.20
39023;DHT22;25908;51.984;5.928;2023-03-01T13:51:02;8.00;53.10
39023;DHT22;25908;51.984;5.928;2023-03-01T13:53:35;8.00;52.90
39023;DHT22;25908;51.984;5.928;2023-03-01T13:58:48;8.00;52.50
39023;DHT22;25908;51.984;5.928;2023-03-01T14:01:32;8.00;52.30
39023;DHT22;25908;51.984;5.928;2023-03-01T14:03:59;8.00;52.20
39023;DHT22;25908;51.984;5.928;2023-03-01T14:06:27;8.00;52.20
39023;DHT22;25908;51.984;5.928;2023-03-01T14:12:02;8.00;53.50
39023;DHT22;25908;51.984;5.928;2023-03-01T14:14:55;8.00;53.90
39023;DHT22;25908;51.984;5.928;2023-03-01T14:19:59;8.00;54.40
39023;DHT22;25908;51.984;5.928;2023-03-01T14:22:32;8.00;54.60
39023;DHT22;25908;51.984;5.928;2023-03-01T14:25:01;8.00;54.60
39023;DHT22;25908;51.984;5.928;2023-03-01T14:27:33;8.00;54.70
39023;DHT22;25908;51.984;5.928;2023-03-01T14:30:04;8.00;54.40
39023;DHT22;25908;51.984;5.928;2023-03-01T14:32:35;8.00;54.30
39023;DHT22;25908;51.984;5.928;2023-03-01T14:35:01;8.00;54.20
39023;DHT22;25908;51.984;5.928;2023-03-01T14:37:29;8.00;54.00
39023;DHT22;25908;51.984;5.928;2023-03-01T14:39:57;7.90;54.30
39023;DHT22;25908;51.984;5.928;2023-03-01T14:42:27;8.00;54.90
39023;DHT22;25908;51.984;5.928;2023-03-01T14:44:55;8.00;54.50
39023;DHT22;25908;51.984;5.928;2023-03-01T14:47:31;8.00;53.20
39023;DHT22;25908;51.984;5.928;2023-03-01T14:50:01;8.00;53.10
39023;DHT22;25908;51.984;5.928;2023-03-01T14:52:38;8.00;53.90
39023;DHT22;25908;51.984;5.928;2023-03-01T14:55:16;7.90;52.80
39023;DHT22;25908;51.984;5.928;2023-03-01T14:57:45;7.90;52.70
39023;DHT22;25908;51.984;5.928;2023-03-01T15:00:26;7.90;52.90
39023;DHT22;25908;51.984;5.928;2023-03-01T15:02:54;8.00;52.20
39023;DHT22;25908;51.984;5.928;2023-03-01T15:05:29;8.00;52.00
39023;DHT22;25908;51.984;5.928;2023-03-01T15:07:56;8.00;51.40
39023;DHT22;25908;51.984;5.928;2023-03-01T15:10:29;8.00;51.30
39023;DHT22;25908;51.984;5.928;2023-03-01T15:12:55;8.00;51.40
39023;DHT22;25908;51.984;5.928;2023-03-01T15:17:55;8.00;52.30
39023;DHT22;25908;51.984;5.928;2023-03-01T15:20:25;8.00;52.30
39023;DHT22;25908;51.984;5.928;2023-03-01T15:22:53;8.00;52.60
39023;DHT22;25908;51.984;5.928;2023-03-01T15:25:21;8.00;52.30
39023;DHT22;25908;51.984;5.928;2023-03-01T15:27:50;8.00;52.70
39023;DHT22;25908;51.984;5.928;2023-03-01T15:30:25;8.10;52.90
39023;DHT22;25908;51.984;5.928;2023-03-01T15:33:27;8.10;52.90
39023;DHT22;25908;51.984;5.928;2023-03-01T15:35:58;8.10;53.30
39023;DHT22;25908;51.984;5.928;2023-03-01T15:38:34;8.10;53.70
39023;DHT22;25908;51.984;5.928;2023-03-01T15:41:05;8.10;53.50
39023;DHT22;25908;51.984;5.928;2023-03-01T15:43:46;8.10;53.90
39023;DHT22;25908;51.984;5.928;2023-03-01T15:46:31;8.20;54.10
39023;DHT22;25908;51.984;5.928;2023-03-01T15:49:03;8.20;54.30
39023;DHT22;25908;51.984;5.928;2023-03-01T15:51:32;8.20;54.50
39023;DHT22;25908;51.984;5.928;2023-03-01T15:54:00;8.30;54.60
39023;DHT22;25908;51.984;5.928;2023-03-01T15:56:26;8.30;54.60
39023;DHT22;25908;51.984;5.928;2023-03-01T15:58:52;8.30;54.00
39023;DHT22;25908;51.984;5.928;2023-03-01T16:01:18;8.20;53.80
39023;DHT22;25908;51.984;5.928;2023-03-01T16:03:44;8.20;53.50
39023;DHT22;25908;51.984;5.928;2023-03-01T16:06:10;8.10;53.70
39023;DHT22;25908;51.984;5.928;2023-03-01T16:08:37;8.10;53.40
39023;DHT22;25908;51.984;5.928;2023-03-01T16:11:05;8.10;53.90
39023;DHT22;25908;51.984;5.928;2023-03-01T16:13:34;8.10;53.10
39023;DHT22;25908;51.984;5.928;2023-03-01T16:15:59;8.00;52.80
39023;DHT22;25908;51.984;5.928;2023-03-01T16:18:25;8.00;53.10
39023;DHT22;25908;51.984;5.928;2023-03-01T16:20:50;7.90;52.70
39023;DHT22;25908;51.984;5.928;2023-03-01T16:23:16;7.90;52.70
39023;DHT22;25908;51.984;5.928;2023-03-01T16:25:42;7.90;52.60
39023;DHT22;25908;51.984;5.928;2023-03-01T16:28:08;7.90;52.40
39023;DHT22;25908;51.984;5.928;2023-03-01T16:30:39;7.80;52.60
39023;DHT22;25908;51.984;5.928;2023-03-01T16:33:04;7.80;52.30
39023;DHT22;25908;51.984;5.928;2023-03-01T16:35:33;7.80;52.60
39023;DHT22;25908;51.984;5.928;2023-03-01T16:37:59;7.70;52.60
39023;DHT22;25908;51.984;5.928;2023-03-01T16:40:27;7.70;52.80
39023;DHT22;25908;51.984;5.928;2023-03-01T16:42:54;7.70;52.60
39023;DHT22;25908;51.984;5.928;2023-03-01T16:45:24;7.70;53.10
39023;DHT22;25908;51.984;5.928;2023-03-01T16:47:50;7.70;53.10
39023;DHT22;25908;51.984;5.928;2023-03-01T16:50:16;7.70;53.10
39023;DHT22;25908;51.984;5.928;2023-03-01T16:52:42;7.60;53.00
39023;DHT22;25908;51.984;5.928;2023-03-01T16:55:08;7.70;53.50
39023;DHT22;25908;51.984;5.928;2023-03-01T16:57:38;7.70;53.70
39023;DHT22;25908;51.984;5.928;2023-03-01T17:00:08;7.70;53.80
39023;DHT22;25908;51.984;5.928;2023-03-01T17:02:38;7.70;54.10
39023;DHT22;25908;51.984;5.928;2023-03-01T17:05:05;7.60;54.30
39023;DHT22;25908;51.984;5.928;2023-03-01T17:07:31;7.60;54.50
39023;DHT22;25908;51.984;5.928;2023-03-01T17:10:02;7.60;54.90
39023;DHT22;25908;51.984;5.928;2023-03-01T17:12:28;7.60;55.10
39023;DHT22;25908;51.984;5.928;2023-03-01T17:14:53;7.60;55.40
39023;DHT22;25908;51.984;5.928;2023-03-01T17:17:19;7.60;55.60
39023;DHT22;25908;51.984;5.928;2023-03-01T17:19:45;7.60;55.70
39023;DHT22;25908;51.984;5.928;2023-03-01T17:22:11;7.60;56.00
39023;DHT22;25908;51.984;5.928;2023-03-01T17:24:39;7.60;56.20
39023;DHT22;25908;51.984;5.928;2023-03-01T17:27:06;7.60;56.20
39023;DHT22;25908;51.984;5.928;2023-03-01T17:29:32;7.60;56.30
39023;DHT22;25908;51.984;5.928;2023-03-01T17:31:57;7.50;56.40
39023;DHT22;25908;51.984;5.928;2023-03-01T17:34:24;7.50;56.60
39023;DHT22;25908;51.984;5.928;2023-03-01T17:36:50;7.50;56.80
39023;DHT22;25908;51.984;5.928;2023-03-01T17:39:17;7.50;57.00
39023;DHT22;25908;51.984;5.928;2023-03-01T17:41:44;7.40;57.10